sensor_id;sensor_type;location;lat;lon;timestamp;P1;P2;P0
80965;PMS5003;70426;37.772;-122.432;2023-12-20T00:00:06;0;0;
80965;PMS5003;70426;37.772;-122.432;2023-12-20T00:02:30;2;1;
80965;PMS5003;70426;37.772;-122.432;2023-12-20T00:04:55;1;1;
80965;PMS5003;70426;37.772;-122.432;2023-12-20T00:07:20;1;1;
80965;PMS5003;70426;37.772;-122.432;2023-12-20T00:09:45;1;1;
80965;PMS5003;70426;37.772;-122.432;2023-12-20T00:12:10;1;1;
80965;PMS5003;70426;37.772;-122.432;2023-12-20T00:14:35;0;0;
80965;PMS5003;70426;37.772;-122.432;2023-12-20T00:17:02;1;1;
80965;PMS5003;70426;37.772;-122.432;2023-12-20T00:19:25;1;1;
80965;PMS5003;70426;37.772;-122.432;2023-12-20T00:21:50;1;0;
80965;PMS5003;70426;37.772;-122.432;2023-12-20T00:24:15;1;0;
80965;PMS5003;70426;37.772;-122.432;2023-12-20T00:26:40;0;0;
80965;PMS5003;70426;37.772;-122.432;2023-12-20T00:29:05;1;1;
80965;PMS5003;70426;37.772;-122.432;2023-12-20T00:31:30;0;0;
80965;PMS5003;70426;37.772;-122.432;2023-12-20T00:33:55;1;1;
80965;PMS5003;70426;37.772;-122.432;2023-12-20T00:36:20;2;1;
80965;PMS5003;70426;37.772;-122.432;2023-12-20T00:38:47;2;1;
80965;PMS5003;70426;37.772;-122.432;2023-12-20T00:41:10;1;0;
80965;PMS5003;70426;37.772;-122.432;2023-12-20T00:43:35;1;1;
80965;PMS5003;70426;37.772;-122.432;2023-12-20T00:46:00;2;2;
80965;PMS5003;70426;37.772;-122.432;2023-12-20T00:48:26;2;1;
80965;PMS5003;70426;37.772;-122.432;2023-12-20T00:50:50;1;1;
80965;PMS5003;70426;37.772;-122.432;2023-12-20T00:53:16;1;1;
80965;PMS5003;70426;37.772;-122.432;2023-12-20T00:55:41;2;1;
80965;PMS5003;70426;37.772;-122.432;2023-12-20T00:58:06;1;1;
80965;PMS5003;70426;37.772;-122.432;2023-12-20T01:00:31;2;1;
80965;PMS5003;70426;37.772;-122.432;2023-12-20T01:02:56;1;1;
80965;PMS5003;70426;37.772;-122.432;2023-12-20T01:05:21;1;1;
80965;PMS5003;70426;37.772;-122.432;2023-12-20T01:07:46;1;1;
80965;PMS5003;70426;37.772;-122.432;2023-12-20T01:10:11;1;1;
80965;PMS5003;70426;37.772;-122.432;2023-12-20T01:12:36;1;1;
80965;PMS5003;70426;37.772;-122.432;2023-12-20T01:15:01;0;0;
80965;PMS5003;70426;37.772;-122.432;2023-12-20T01:17:26;1;1;
80965;PMS5003;70426;37.772;-122.432;2023-12-20T01:19:51;1;1;
80965;PMS5003;70426;37.772;-122.432;2023-12-20T01:22:16;1;1;
80965;PMS5003;70426;37.772;-122.432;2023-12-20T01:24:41;2;2;
80965;PMS5003;70426;37.772;-122.432;2023-12-20T01:27:06;1;1;
80965;PMS5003;70426;37.772;-122.432;2023-12-20T01:29:31;2;2;
80965;PMS5003;70426;37.772;-122.432;2023-12-20T01:31:56;1;1;
80965;PMS5003;70426;37.772;-122.432;2023-12-20T01:34:21;2;2;
80965;PMS5003;70426;37.772;-122.432;2023-12-20T01:36:46;3;1;
80965;PMS5003;70426;37.772;-122.432;2023-12-20T01:39:11;1;1;
80965;PMS5003;70426;37.772;-122.432;2023-12-20T01:41:36;3;2;
80965;PMS5003;70426;37.772;-122.432;2023-12-20T01:44:02;2;2;
80965;PMS5003;70426;37.772;-122.432;2023-12-20T01:46:26;2;2;
80965;PMS5003;70426;37.772;-122.432;2023-12-20T01:48:51;1;0;
80965;PMS5003;70426;37.772;-122.432;2023-12-20T01:51:17;1;1;
80965;PMS5003;70426;37.772;-122.432;2023-12-20T01:53:42;3;3;
80965;PMS5003;70426;37.772;-122.432;2023-12-20T01:56:07;4;4;
80965;PMS5003;70426;37.772;-122.432;2023-12-20T01:58:32;6;5;
80965;PMS5003;70426;37.772;-122.432;2023-12-20T02:00:57;5;5;
80965;PMS5003;70426;37.772;-122.432;2023-12-20T02:03:22;6;6;
80965;PMS5003;70426;37.772;-122.432;2023-12-20T02:05:47;6;5;
80965;PMS5003;70426;37.772;-122.432;2023-12-20T02:08:12;4;4;
80965;PMS5003;70426;37.772;-122.432;2023-12-20T02:10:37;6;5;
80965;PMS5003;70426;37.772;-122.432;2023-12-20T02:13:02;4;4;
80965;PMS5003;70426;37.772;-122.432;2023-12-20T02:15:27;4;4;
80965;PMS5003;70426;37.772;-122.432;2023-12-20T02:17:52;5;4;
80965;PMS5003;70426;37.772;-122.432;2023-12-20T02:20:17;3;3;
80965;PMS5003;70426;37.772;-122.432;2023-12-20T02:22:42;5;4;
80965;PMS5003;70426;37.772;-122.432;2023-12-20T02:25:07;3;3;
80965;PMS5003;70426;37.772;-122.432;2023-12-20T02:27:33;4;3;
80965;PMS5003;70426;37.772;-122.432;2023-12-20T02:29:57;5;4;
80965;PMS5003;70426;37.772;-122.432;2023-12-20T02:32:22;7;6;
80965;PMS5003;70426;37.772;-122.432;2023-12-20T02:34:47;18;13;
80965;PMS5003;70426;37.772;-122.432;2023-12-20T02:37:13;23;19;
80965;PMS5003;70426;37.772;-122.432;2023-12-20T02:39:39;19;14;
80965;PMS5003;70426;37.772;-122.432;2023-12-20T02:42:04;17;11;
80965;PMS5003;70426;37.772;-122.432;2023-12-20T02:44:29;21;19;
80965;PMS5003;70426;37.772;-122.432;2023-12-20T02:46:54;18;15;
80965;PMS5003;70426;37.772;-122.432;2023-12-20T02:49:20;17;15;
80965;PMS5003;70426;37.772;-122.432;2023-12-20T02:51:44;18;16;
80965;PMS5003;70426;37.772;-122.432;2023-12-20T02:54:10;17;12;
80965;PMS5003;70426;37.772;-122.432;2023-12-20T02:56:35;16;14;
80965;PMS5003;70426;37.772;-122.432;2023-12-20T02:59:00;13;12;
80965;PMS5003;70426;37.772;-122.432;2023-12-20T03:01:25;11;11;
80965;PMS5003;70426;37.772;-122.432;2023-12-20T03:03:50;15;13;
80965;PMS5003;70426;37.772;-122.432;2023-12-20T03:06:16;13;12;
80965;PMS5003;70426;37.772;-122.432;2023-12-20T03:08:41;13;11;
80965;PMS5003;70426;37.772;-122.432;2023-12-20T03:11:06;16;14;
80965;PMS5003;70426;37.772;-122.432;2023-12-20T03:13:31;10;10;
80965;PMS5003;70426;37.772;-122.432;2023-12-20T03:15:56;8;7;
80965;PMS5003;70426;37.772;-122.432;2023-12-20T03:18:21;9;7;
80965;PMS5003;70426;37.772;-122.432;2023-12-20T03:20:47;8;7;
80965;PMS5003;70426;37.772;-122.432;2023-12-20T03:23:12;10;9;
80965;PMS5003;70426;37.772;-122.432;2023-12-20T03:25:37;9;8;
80965;PMS5003;70426;37.772;-122.432;2023-12-20T03:28:02;5;5;
80965;PMS5003;70426;37.772;-122.432;2023-12-20T03:30:27;6;6;
80965;PMS5003;70426;37.772;-122.432;2023-12-20T03:32:52;7;6;
80965;PMS5003;70426;37.772;-122.432;2023-12-20T03:35:17;7;5;
80965;PMS5003;70426;37.772;-122.432;2023-12-20T03:37:42;7;6;
80965;PMS5003;70426;37.772;-122.432;2023-12-20T03:40:07;6;5;
80965;PMS5003;70426;37.772;-122.432;2023-12-20T03:42:32;6;6;
80965;PMS5003;70426;37.772;-122.432;2023-12-20T03:44:57;8;8;
80965;PMS5003;70426;37.772;-122.432;2023-12-20T03:47:22;6;5;
80965;PMS5003;70426;37.772;-122.432;2023-12-20T03:49:47;7;6;
80965;PMS5003;70426;37.772;-122.432;2023-12-20T03:52:12;6;5;
80965;PMS5003;70426;37.772;-122.432;2023-12-20T03:54:38;7;5;
80965;PMS5003;70426;37.772;-122.432;2023-12-20T03:57:02;6;4;
80965;PMS5003;70426;37.772;-122.432;2023-12-20T03:59:27;7;5;
80965;PMS5003;70426;37.772;-122.432;2023-12-20T04:01:52;6;5;
80965;PMS5003;70426;37.772;-122.432;2023-12-20T04:04:18;5;4;
80965;PMS5003;70426;37.772;-122.432;2023-12-20T04:06:42;4;3;
80965;PMS5003;70426;37.772;-122.432;2023-12-20T04:09:08;4;4;
80965;PMS5003;70426;37.772;-122.432;2023-12-20T04:11:33;6;6;
80965;PMS5003;70426;37.772;-122.432;2023-12-20T04:13:58;7;7;
80965;PMS5003;70426;37.772;-122.432;2023-12-20T04:16:23;8;8;
80965;PMS5003;70426;37.772;-122.432;2023-12-20T04:18:48;7;6;
80965;PMS5003;70426;37.772;-122.432;2023-12-20T04:21:13;9;8;
80965;PMS5003;70426;37.772;-122.432;2023-12-20T04:23:38;7;7;
80965;PMS5003;70426;37.772;-122.432;2023-12-20T04:26:03;11;10;
80965;PMS5003;70426;37.772;-122.432;2023-12-20T04:28:29;8;8;
80965;PMS5003;70426;37.772;-122.432;2023-12-20T04:30:53;8;8;
80965;PMS5003;70426;37.772;-122.432;2023-12-20T04:33:19;9;8;
80965;PMS5003;70426;37.772;-122.432;2023-12-20T04:35:44;10;8;
80965;PMS5003;70426;37.772;-122.432;2023-12-20T04:38:09;6;6;
80965;PMS5003;70426;37.772;-122.432;2023-12-20T04:40:34;11;10;
80965;PMS5003;70426;37.772;-122.432;2023-12-20T04:42:59;8;8;
80965;PMS5003;70426;37.772;-122.432;2023-12-20T04:45:24;7;7;
80965;PMS5003;70426;37.772;-122.432;2023-12-20T04:47:49;9;9;
80965;PMS5003;70426;37.772;-122.432;2023-12-20T04:50:14;6;6;
80965;PMS5003;70426;37.772;-122.432;2023-12-20T04:52:39;6;6;
80965;PMS5003;70426;37.772;-122.432;2023-12-20T04:55:04;5;5;
80965;PMS5003;70426;37.772;-122.432;2023-12-20T04:57:29;6;6;
80965;PMS5003;70426;37.772;-122.432;2023-12-20T04:59:54;6;6;
80965;PMS5003;70426;37.772;-122.432;2023-12-20T05:02:19;6;5;
80965;PMS5003;70426;37.772;-122.432;2023-12-20T05:04:44;6;6;
80965;PMS5003;70426;37.772;-122.432;2023-12-20T05:07:10;5;5;
80965;PMS5003;70426;37.772;-122.432;2023-12-20T05:09:35;5;5;
